Latest Weather Observations for Perth Airport

IDW60901

Issued at 4:41 am WST Friday 30 October 2020 (issued every 10 minutes, with the page automatically refreshed every 10 minutes)

About weather observations | Map of Perth area stations | Latest observations for Perth area | Other Formats
Station Details ID: 009021 Name: PERTH AIRPORT Lat: -31.93 Lon: 115.98 Height: 15.4 m
Data from the previous 72 hours. | See also: Recent months at Perth Airport
Date/Time
WST
Temp
°C
App
Temp
°C
Dew
Point
°C
Rel
Hum
%
Delta-T
°C
Wind Press
QNH
hPa
Press
MSL
hPa
Rain since
9am
mm
Dir  Spd
km/h
Gust
km/h
Spd
kts
Gust
kts
30/04:30am 17.8 13.2 6.3 47 5.7 E 20 33 11 18 1013.7 1013.7 0.0
30/04:00am 18.4 14.2 5.9 44 6.1 E 17 26 9 14 1013.6 1013.6 0.0
30/03:30am 18.7 14.0 6.2 44 6.2 ESE 20 37 11 20 1013.4 1013.4 0.0
30/03:00am 19.1 14.4 6.2 43 6.4 ESE 20 30 11 16 1013.6 1013.6 0.0
30/02:30am 19.9 13.9 5.2 38 7.2 E 26 33 14 18 1013.7 1013.7 0.0
30/02:05am 20.9 12.9 4.0 33 8.1 E 35 54 19 29 1013.4 1013.4 0.0
30/02:00am 21.1 11.9 3.3 31 8.5 E 41 56 22 30 1013.4 1013.4 0.0
30/01:30am 21.8 12.4 2.5 28 9.1 E 41 57 22 31 1013.9 1013.9 0.0
30/01:26am 21.8 12.8 2.5 28 9.1 E 39 57 21 31 1014.0 1014.0 0.0
30/01:00am 22.4 12.8 0.9 24 9.9 E 41 57 22 31 1014.4 1014.4 0.0
30/12:39am 22.7 12.5 -0.1 22 10.3 E 43 61 23 33 1014.8 1014.8 0.0
30/12:30am 22.8 12.9 -0.6 21 10.5 E 41 57 22 31 1015.0 1015.0 0.0
30/12:20am 23.1 13.6 -0.4 21 10.6 E 39 57 21 31 1015.1 1015.1 0.0
30/12:00am 23.7 13.5 -0.6 20 10.9 E 43 54 23 29 1015.2 1015.2 0.0
 
Date/Time
WST
Temp
°C
App
Temp
°C
Dew
Point
°C
Rel
Hum
%
Delta-T
°C
Wind Press
QNH
hPa
Press
MSL
hPa
Rain since
9am
mm
Dir  Spd
km/h
Gust
km/h
Spd
kts
Gust
kts
29/11:30pm 24.1 13.8 -0.9 19 11.2 E 43 56 23 30 1014.8 1014.8 0.0
29/11:00pm 24.7 15.1 -1.2 18 11.6 E 39 57 21 31 1014.9 1014.9 0.0
29/10:57pm 24.3 15.2 -0.8 19 11.3 E 37 56 20 30 1014.9 1014.9 0.0
29/10:30pm 24.5 15.8 -0.6 19 11.4 E 35 48 19 26 1015.2 1015.2 0.0
29/10:00pm 25.2 17.8 -0.8 18 11.8 ESE 28 35 15 19 1015.6 1015.6 0.0
29/09:30pm 25.3 19.1 0.0 19 11.7 ESE 22 32 12 17 1015.6 1015.6 0.0
29/09:00pm 24.6 20.5 2.1 23 10.7 ESE 13 24 7 13 1016.1 1016.1 0.0
29/08:30pm 23.4 19.8 2.8 26 9.9 SSE 11 19 6 10 1016.0 1016.0 0.0
29/08:00pm 24.1 20.7 4.0 27 9.9 SSE 11 17 6 9 1015.5 1015.5 0.0
29/07:30pm 24.6 20.6 4.9 28 9.9 SSE 15 19 8 10 1015.0 1015.0 0.0
29/07:00pm 26.5 22.1 4.9 25 11.0 SSE 17 20 9 11 1014.8 1014.8 0.0
29/06:30pm 27.4 23.2 5.6 25 11.3 SSE 17 22 9 12 1014.8 1014.8 0.0
29/06:00pm 29.1 24.2 5.2 22 12.4 SE 20 28 11 15 1014.7 1014.7 0.0
29/05:30pm 30.2 25.4 5.5 21 13.0 ESE 20 30 11 16 1014.6 1014.6 0.0
29/05:00pm 30.9 26.0 6.7 22 13.0 SE 22 28 12 15 1014.8 1014.8 0.0
29/04:30pm 31.0 26.3 6.1 21 13.3 ESE 20 32 11 17 1015.0 1015.0 0.0
29/04:00pm 31.1 25.8 6.9 22 13.1 ESE 24 33 13 18 1015.2 1015.2 0.0
29/03:30pm 31.2 25.9 7.0 22 13.1 ESE 24 32 13 17 1015.3 1015.3 0.0
29/03:00pm 30.8 26.7 8.5 25 12.3 ESE 20 30 11 16 1015.6 1015.6 0.0
29/02:30pm 30.8 26.7 8.5 25 12.4 ESE 20 30 11 16 1015.8 1015.8 0.0
29/02:00pm 29.9 25.2 7.8 25 12.0 ESE 22 30 12 16 1016.3 1016.3 0.0
29/01:30pm 29.3 24.5 8.9 28 11.3 ESE 24 33 13 18 1016.7 1016.7 0.0
29/01:00pm 29.0 24.5 8.7 28 11.2 SE 22 35 12 19 1017.2 1017.2 0.0
29/12:30pm 28.6 24.7 9.3 30 10.7 E 20 32 11 17 1017.7 1017.7 0.0
29/12:00pm 27.0 21.8 8.9 32 9.9 E 26 35 14 19 1018.2 1018.2 0.0
29/11:30am 26.0 21.1 8.5 33 9.5 E 24 39 13 21 1019.1 1019.1 0.0
29/11:00am 25.3 20.3 9.6 37 8.6 ESE 26 35 14 19 1019.6 1019.6 0.0
29/10:30am 24.6 19.5 9.3 38 8.3 E 26 35 14 19 1020.1 1020.1 0.0
29/10:00am 23.2 18.1 9.2 41 7.5 ESE 26 37 14 20 1020.6 1020.6 0.0
29/09:30am 21.7 17.7 8.9 44 6.8 E 20 30 11 16 1021.0 1021.0 0.0
29/09:00am 20.9 14.5 8.5 45 6.5 E 32 41 17 22 1020.9 1020.9 0.0
29/08:43am 20.1 14.0 8.4 47 6.1 E 30 50 16 27 1021.0 1021.0 0.0
29/08:30am 19.7 13.2 9.0 50 5.6 E 33 44 18 24 1021.0 1021.0 0.0
29/08:00am 18.2 11.3 8.7 54 4.9 ENE 35 50 19 27 1020.9 1020.9 0.0
29/07:30am 17.0 9.2 8.4 57 4.4 ENE 39 65 21 35 1020.9 1020.9 0.0
29/07:00am 15.9 7.4 8.6 62 3.7 E 43 63 23 34 1020.6 1020.6 0.0
29/06:30am 14.9 6.2 8.4 65 3.3 E 44 65 24 35 1020.4 1020.4 0.0
29/06:00am 14.2 4.6 7.9 66 3.1 E 48 67 26 36 1020.0 1020.0 0.0
29/05:30am 14.1 4.4 7.6 65 3.2 E 48 72 26 39 1019.4 1019.4 0.0
29/05:00am 14.2 4.5 7.5 64 3.3 E 48 74 26 40 1019.3 1019.3 0.0
29/04:33am 14.6 5.3 7.4 62 3.5 E 46 65 25 35 1019.1 1019.1 0.0
29/04:30am 14.5 5.1 7.3 62 3.5 E 46 63 25 34 1019.1 1019.1 0.0
29/04:00am 14.6 8.6 7.2 61 3.6 E 28 50 15 27 1019.0 1019.0 0.0
29/03:30am 14.8 12.1 7.4 61 3.7 N 11 20 6 11 1019.8 1019.8 0.0
29/03:00am 15.2 12.1 7.3 59 3.9 E 13 26 7 14 1019.4 1019.4 0.0
29/02:30am 15.5 12.8 7.3 58 4.1 SSE 11 28 6 15 1019.0 1019.0 0.0
29/02:00am 16.1 12.4 7.8 58 4.2 E 17 41 9 22 1018.9 1018.9 0.0
29/01:30am 16.7 13.8 8.1 57 4.4 SE 13 30 7 16 1018.6 1018.6 0.0
29/01:00am 17.3 14.1 8.4 56 4.5 SE 15 32 8 17 1019.0 1019.0 0.0
29/12:30am 17.9 14.1 9.0 56 4.6 ESE 19 28 10 15 1018.8 1018.8 0.0
29/12:00am 16.5 13.2 9.4 63 3.7 ENE 17 32 9 17 1018.8 1018.8 0.0
 
Date/Time
WST
Temp
°C
App
Temp
°C
Dew
Point
°C
Rel
Hum
%
Delta-T
°C
Wind Press
QNH
hPa
Press
MSL
hPa
Rain since
9am
mm
Dir  Spd
km/h
Gust
km/h
Spd
kts
Gust
kts
28/11:30pm 13.9 11.6 10.5 80 1.8 SSW 13 17 7 9 1018.7 1018.7 0.0
28/11:00pm 12.6 10.6 10.0 84 1.3 SSW 11 13 6 7 1018.8 1018.8 0.0
28/10:30pm 13.9 11.8 9.9 77 2.1 SSW 11 13 6 7 1019.0 1019.0 0.0
28/10:00pm 16.2 14.0 10.7 70 2.9 SSW 13 17 7 9 1019.2 1019.2 0.0
28/09:30pm 17.1 13.6 10.9 67 3.3 SSW 20 26 11 14 1019.3 1019.3 0.0
28/09:00pm 17.3 13.1 11.1 67 3.3 S 24 32 13 17 1019.6 1019.6 0.0
28/08:30pm 17.6 14.2 11.2 66 3.5 SSW 20 30 11 16 1019.6 1019.6 0.0
28/08:00pm 18.0 13.5 11.3 65 3.6 SSW 26 32 14 17 1019.3 1019.3 0.0
28/07:30pm 18.4 13.8 11.2 63 3.9 SSW 26 33 14 18 1019.2 1019.2 0.0
28/07:00pm 18.9 14.7 11.2 61 4.2 SSW 24 32 13 17 1018.8 1018.8 0.0
28/06:30pm 19.4 14.8 11.2 59 4.5 SSW 26 32 14 17 1018.5 1018.5 0.0
28/06:00pm 20.3 15.1 10.4 53 5.4 SW 28 37 15 20 1018.1 1018.1 0.0
28/05:30pm 20.9 15.3 8.9 46 6.3 SW 28 35 15 19 1018.0 1018.0 0.0
28/05:00pm 21.8 15.9 9.0 44 6.8 SW 30 35 16 19 1017.8 1017.8 0.0
28/04:30pm 22.5 16.6 9.0 42 7.2 SW 30 41 16 22 1017.6 1017.6 0.0
28/04:00pm 23.2 16.8 8.5 39 7.8 SW 32 41 17 22 1017.5 1017.5 0.0
28/03:30pm 23.1 16.7 8.4 39 7.8 SW 32 41 17 22 1017.3 1017.3 0.0
28/03:00pm 24.3 18.0 9.8 40 7.9 WSW 33 41 18 22 1017.4 1017.4 0.0
28/02:30pm 24.6 19.1 10.5 41 7.8 WSW 30 41 16 22 1017.4 1017.4 0.0
28/02:00pm 24.1 19.6 11.4 45 7.1 SW 26 37 14 20 1017.4 1017.4 0.0
28/01:30pm 24.8 20.9 12.1 45 7.3 WSW 24 35 13 19 1017.7 1017.7 0.0
28/01:00pm 24.7 21.5 12.0 45 7.2 SW 20 33 11 18 1018.0 1018.0 0.0
28/12:30pm 24.5 21.3 11.1 43 7.5 SW 19 30 10 16 1018.0 1018.0 0.0
28/12:00pm 24.4 21.3 10.3 41 7.8 SSW 17 32 9 17 1018.2 1018.2 0.0
28/11:30am 25.2 22.9 10.6 40 8.1 SW 13 26 7 14 1018.4 1018.4 0.0
28/11:00am 23.4 19.5 9.4 41 7.6 S 20 32 11 17 1018.9 1018.9 0.0
28/10:30am 23.6 20.8 9.9 42 7.5 S 15 24 8 13 1019.1 1019.1 0.0
28/10:00am 22.1 18.5 9.9 46 6.6 S 19 28 10 15 1019.5 1019.5 0.0
28/09:30am 22.2 18.8 10.7 48 6.3 SSW 19 32 10 17 1019.5 1019.5 0.0
28/09:00am 21.0 17.8 11.1 53 5.4 S 19 26 10 14 1019.5 1019.5 0.0
28/08:30am 20.2 17.2 12.4 61 4.4 S 20 28 11 15 1019.5 1019.5 0.0
28/08:00am 19.4 17.2 13.3 68 3.5 S 17 24 9 13 1019.4 1019.4 0.0
28/07:30am 18.2 17.4 14.1 77 2.4 SSW 11 15 6 8 1019.2 1019.2 0.0
28/07:00am 15.7 17.0 14.2 91 0.8 CALM 0 0 0 0 1018.8 1018.8 0.0
28/06:30am 14.5 15.7 13.7 95 0.4 CALM 0 0 0 0 1018.4 1018.4 0.0
28/06:00am 13.5 13.0 12.7 95 0.4 ENE 7 7 4 4 1017.9 1017.9 0.0
28/05:30am 13.0 12.3 12.1 94 0.5 NE 7 9 4 5 1017.6 1017.6 0.0
28/05:00am 13.5 12.5 12.4 93 0.6 NE 9 11 5 6 1017.2 1017.2 0.0
28/04:30am 13.7 12.6 12.1 90 0.9 S 9 11 5 6 1016.7 1016.7 0.0
28/04:00am 15.5 14.8 13.2 86 1.3 S 9 11 5 6 1016.2 1016.2 0.0
28/03:30am 16.5 16.0 13.8 84 1.5 SSW 9 9 5 5 1016.1 1016.1 0.0
28/03:00am 16.2 15.4 14.0 87 1.2 S 11 13 6 7 1015.9 1015.9 0.0
28/02:30am 15.3 14.5 14.0 92 0.7 S 11 13 6 7 1015.6 1015.6 0.0
28/02:00am 14.9 14.3 13.6 92 0.7 S 9 11 5 6 1015.5 1015.5 0.0
28/01:30am 15.6 15.5 13.8 89 1.0 ESE 7 9 4 5 1015.5 1015.5 0.0
28/01:00am 16.6 16.1 14.8 89 1.0 ESE 11 13 6 7 1015.6 1015.6 0.0
28/12:30am 17.1 16.6 14.9 87 1.3 S 11 13 6 7 1015.8 1015.8 0.0
28/12:00am 17.3 14.6 14.6 84 1.6 SW 22 32 12 17 1016.1 1016.1 0.0
 
Date/Time
WST
Temp
°C
App
Temp
°C
Dew
Point
°C
Rel
Hum
%
Delta-T
°C
Wind Press
QNH
hPa
Press
MSL
hPa
Rain since
9am
mm
Dir  Spd
km/h
Gust
km/h
Spd
kts
Gust
kts
27/11:45pm 18.1 15.0 14.4 79 2.1 SW 24 33 13 18 1016.2 1016.2 0.0
27/11:30pm 18.2 16.4 14.5 79 2.1 SW 17 22 9 12 1016.1 1016.1 0.0
27/11:00pm 18.8 15.2 14.3 75 2.6 SW 26 33 14 18 1015.9 1015.9 0.0
27/10:30pm 19.5 18.2 13.7 69 3.3 WSW 13 22 7 12 1015.7 1015.7 0.0
27/10:00pm 19.3 17.6 13.5 69 3.3 WSW 15 20 8 11 1015.8 1015.8 0.0
27/09:30pm 19.5 17.5 12.8 65 3.8 W 15 22 8 12 1016.0 1016.0 0.0
27/09:00pm 19.5 17.7 12.0 62 4.2 WSW 13 17 7 9 1016.1 1016.1 0.0
27/08:30pm 19.5 17.7 12.0 62 4.2 W 13 17 7 9 1015.8 1015.8 0.0
27/08:00pm 19.6 17.0 12.1 62 4.2 W 17 26 9 14 1015.7 1015.7 0.0
27/07:30pm 19.7 16.9 11.5 59 4.5 WSW 17 24 9 13 1015.7 1015.7 0.0
27/07:00pm 19.3 16.2 11.6 61 4.2 WSW 19 26 10 14 1015.5 1015.5 0.0
27/06:30pm 19.6 16.2 11.4 59 4.5 WSW 20 30 11 16 1015.1 1015.1 0.0
27/06:00pm 20.3 16.5 11.0 55 5.1 WSW 22 28 12 15 1014.7 1014.7 0.0
27/05:30pm 21.3 16.6 10.5 50 5.9 WSW 26 35 14 19 1014.4 1014.4 0.0
27/05:00pm 21.5 18.6 10.9 51 5.8 W 17 22 9 12 1014.0 1014.0 0.0
27/04:30pm 21.6 18.1 10.1 48 6.2 W 19 30 10 16 1013.8 1013.8 0.0
27/04:00pm 22.1 17.9 11.2 50 6.0 WSW 24 37 13 20 1013.5 1013.5 0.0
27/03:30pm 22.8 18.8 11.8 50 6.2 SW 24 35 13 19 1013.3 1013.3 0.0
27/03:00pm 22.8 18.8 11.8 50 6.2 WSW 24 30 13 16 1013.4 1013.4 0.0
27/02:30pm 23.1 18.9 12.4 51 6.1 WSW 26 33 14 18 1013.5 1013.5 0.0
27/02:00pm 22.2 18.4 12.5 54 5.5 WSW 24 32 13 17 1013.8 1013.8 0.0
27/01:30pm 23.6 20.3 11.6 47 6.8 W 20 33 11 18 1013.6 1013.6 0.0
27/01:00pm 23.4 20.1 12.7 51 6.1 WNW 22 32 12 17 1013.7 1013.7 0.0
27/12:30pm 23.3 20.6 12.9 52 6.0 W 19 32 10 17 1013.8 1013.8 0.0
27/12:00pm 22.8 19.2 11.8 50 6.2 W 22 30 12 16 1014.0 1014.0 0.0
27/11:30am 23.1 20.2 12.4 51 6.1 W 19 28 10 15 1014.2 1014.2 0.0
27/11:00am 22.5 19.5 12.4 52 5.7 W 20 30 11 16 1014.2 1014.2 0.0
27/10:30am 23.1 20.0 12.1 50 6.2 W 20 30 11 16 1014.4 1014.4 0.0
27/10:00am 22.1 19.1 12.1 53 5.6 NW 19 28 10 15 1014.4 1014.4 0.0
27/09:30am 22.2 19.1 12.2 53 5.7 NW 20 28 11 15 1014.3 1014.3 0.0
27/09:00am 20.9 19.8 14.3 66 3.8 NW 13 17 7 9 1014.5 1014.5 0.0
27/08:30am 20.1 18.9 15.1 73 2.9 NNW 15 22 8 12 1014.3 1014.3 0.0
27/08:00am 18.9 17.9 14.6 76 2.5 N 13 19 7 10 1014.3 1014.3 0.0
27/07:30am 17.6 17.0 14.5 82 1.8 NNE 11 13 6 7 1014.4 1014.4 0.0
27/07:00am 15.8 15.5 14.3 91 0.9 N 9 11 5 6 1014.4 1014.4 0.0
27/06:30am 14.6 14.2 14.0 96 0.3 NNE 9 11 5 6 1014.2 1014.2 0.0
27/06:12am 14.3 13.8 13.7 96 0.3 N 9 11 5 6 1014.1 1014.1 0.0
27/06:00am 14.0 13.7 13.4 96 0.3 N 7 11 4 6 1014.0 1014.0 0.0
27/05:30am 13.2 12.3 12.6 96 0.3 N 9 11 5 6 1013.8 1013.8 0.0
27/05:00am 13.1 12.1 12.3 95 0.4 NNE 9 13 5 7 1013.4 1013.4 0.0

Latest Capital City Observations: Canberra | Sydney | Melbourne | Brisbane | Adelaide | Perth | Hobart | Darwin

Other formats

Comma delimited format used in spreadsheet applications
http://www.bom.gov.au/fwo/IDW60901/IDW60901.94610.axf

JavaScript Object Notation format (JSON) in row-major order
http://www.bom.gov.au/fwo/IDW60901/IDW60901.94610.json

Data quality

Most of these data are generated automatically and are frequently updated. Quality checks on data are not normally performed. It is possible for incorrect values to appear. Refer to information at About Latest Weather Observations and please check the disclaimer before using these data.